TAM3372 SBGL-SBRF
Flight info
| Callsign | TAM3372 |
|---|---|
| Flight time | N/A |
| Altitude | 35000 |
| Route | IMBAP UZ42 ANBEX |
| Aircraft | A321/M-SDE3FGHIRWY/LB1 |
Departure
| Time | 2026-05-05 09:51 |
|---|---|
| Airport | Rio Galeão – Tom Jobim International Airport (SBGL) |
Arrival
| Time | N/A |
|---|---|
| Airport | Recife/Guararapes - Gilberto Freyre International Airport (SBRF) |
| Time | Latitude | Longitude | Altitude | Speed | Heading |
|---|---|---|---|---|---|
| 2026-05-05 09:19 | -22.81244 | -43.24974 | 22 ft | 0 kts | 331° |
| 2026-05-05 09:39 | -22.81259 | -43.24965 | 22 ft | 4 kts | 332° |
| 2026-05-05 09:39 | -22.81280 | -43.24950 | 22 ft | 4 kts | 296° |
| 2026-05-05 09:39 | -22.81283 | -43.24941 | 22 ft | 4 kts | 245° |
| 2026-05-05 09:40 | -22.81295 | -43.24967 | 22 ft | 3 kts | 248° |
| 2026-05-05 09:40 | -22.81296 | -43.24971 | 22 ft | 0 kts | 249° |
| 2026-05-05 09:44 | -22.81297 | -43.24972 | 22 ft | 1 kts | 249° |
| 2026-05-05 09:44 | -22.81312 | -43.25020 | 22 ft | 8 kts | 255° |
| 2026-05-05 09:44 | -22.81316 | -43.25042 | 22 ft | 6 kts | 261° |
| 2026-05-05 09:45 | -22.81318 | -43.25062 | 23 ft | 6 kts | 263° |
| 2026-05-05 09:45 | -22.81332 | -43.25118 | 24 ft | 10 kts | 234° |
| 2026-05-05 09:45 | -22.81389 | -43.25116 | 21 ft | 8 kts | 148° |
| 2026-05-05 09:45 | -22.81437 | -43.25123 | 21 ft | 7 kts | 211° |
| 2026-05-05 09:46 | -22.81494 | -43.25166 | 21 ft | 11 kts | 215° |
| 2026-05-05 09:46 | -22.81552 | -43.25216 | 21 ft | 10 kts | 232° |
| 2026-05-05 09:46 | -22.81542 | -43.25287 | 22 ft | 14 kts | 303° |
| 2026-05-05 09:46 | -22.81467 | -43.25399 | 21 ft | 19 kts | 306° |
| 2026-05-05 09:47 | -22.81392 | -43.25513 | 21 ft | 18 kts | 306° |
| 2026-05-05 09:47 | -22.81321 | -43.25621 | 22 ft | 17 kts | 306° |
| 2026-05-05 09:47 | -22.81256 | -43.25719 | 22 ft | 15 kts | 306° |
| 2026-05-05 09:47 | -22.81179 | -43.25837 | 23 ft | 24 kts | 306° |
| 2026-05-05 09:48 | -22.81080 | -43.25919 | 22 ft | 16 kts | 14° |
| 2026-05-05 09:48 | -22.80988 | -43.25854 | 24 ft | 18 kts | 36° |
| 2026-05-05 09:48 | -22.80880 | -43.25771 | 23 ft | 20 kts | 35° |
| 2026-05-05 09:48 | -22.80762 | -43.25680 | 28 ft | 20 kts | 35° |
| 2026-05-05 09:49 | -22.80653 | -43.25596 | 29 ft | 18 kts | 36° |
| 2026-05-05 09:49 | -22.80553 | -43.25529 | 30 ft | 14 kts | 7° |
| 2026-05-05 09:49 | -22.80478 | -43.25568 | 31 ft | 12 kts | 326° |
| 2026-05-05 09:49 | -22.80407 | -43.25612 | 29 ft | 12 kts | 347° |
| 2026-05-05 09:50 | -22.80330 | -43.25580 | 27 ft | 13 kts | 36° |
| 2026-05-05 09:50 | -22.80258 | -43.25520 | 28 ft | 13 kts | 37° |
| 2026-05-05 09:50 | -22.80186 | -43.25461 | 28 ft | 13 kts | 44° |
| 2026-05-05 09:50 | -22.80138 | -43.25311 | 26 ft | 44 kts | 74° |
| 2026-05-05 09:51 | -22.79993 | -43.24755 | 30 ft | 107 kts | 74° |
| 2026-05-05 09:51 | -22.79743 | -43.23799 | 28 ft | 154 kts | 74° |
| 2026-05-05 09:51 | -22.79420 | -43.22563 | 179 ft | 178 kts | 76° |
| 2026-05-05 09:51 | -22.79139 | -43.21273 | 812 ft | 175 kts | 79° |
| 2026-05-05 09:52 | -22.78895 | -43.19979 | 1388 ft | 175 kts | 76° |
| 2026-05-05 09:52 | -22.78633 | -43.18683 | 1809 ft | 181 kts | 75° |
| 2026-05-05 09:52 | -22.78337 | -43.17268 | 1963 ft | 203 kts | 75° |
| 2026-05-05 09:52 | -22.78003 | -43.15701 | 2107 ft | 223 kts | 75° |
| 2026-05-05 09:53 | -22.77631 | -43.13970 | 2231 ft | 249 kts | 75° |
| 2026-05-05 09:53 | -22.77220 | -43.12082 | 2697 ft | 263 kts | 75° |
| 2026-05-05 09:53 | -22.76796 | -43.10137 | 3381 ft | 268 kts | 75° |
| 2026-05-05 09:53 | -22.76363 | -43.08165 | 4072 ft | 271 kts | 75° |
| 2026-05-05 09:54 | -22.75909 | -43.06169 | 4789 ft | 274 kts | 72° |
| 2026-05-05 09:54 | -22.75055 | -43.04315 | 5460 ft | 278 kts | 53° |
| 2026-05-05 09:54 | -22.73658 | -43.02861 | 6121 ft | 283 kts | 33° |
| 2026-05-05 09:54 | -22.71847 | -43.02018 | 6740 ft | 287 kts | 11° |
| 2026-05-05 09:55 | -22.69871 | -43.01663 | 7377 ft | 290 kts | 10° |
| 2026-05-05 09:55 | -22.67888 | -43.01205 | 8041 ft | 293 kts | 13° |
| 2026-05-05 09:55 | -22.65900 | -43.00681 | 8714 ft | 296 kts | 13° |
| 2026-05-05 09:55 | -22.63893 | -43.00136 | 9393 ft | 299 kts | 13° |
| 2026-05-05 09:56 | -22.61868 | -42.99591 | 10080 ft | 301 kts | 13° |
| 2026-05-05 09:56 | -22.59785 | -42.99043 | 10379 ft | 318 kts | 13° |
| 2026-05-05 09:56 | -22.57556 | -42.98474 | 10503 ft | 339 kts | 13° |
| 2026-05-05 09:56 | -22.55199 | -42.97885 | 10765 ft | 354 kts | 12° |
| 2026-05-05 09:57 | -22.52775 | -42.97284 | 11278 ft | 360 kts | 12° |
| 2026-05-05 09:57 | -22.50323 | -42.96678 | 11846 ft | 364 kts | 12° |
| 2026-05-05 09:57 | -22.47844 | -42.96068 | 12399 ft | 368 kts | 12° |
| 2026-05-05 09:57 | -22.45336 | -42.95451 | 13000 ft | 371 kts | 12° |
| 2026-05-05 09:58 | -22.42804 | -42.94825 | 13568 ft | 375 kts | 12° |
| 2026-05-05 09:58 | -22.40249 | -42.94192 | 14121 ft | 379 kts | 12° |
| 2026-05-05 09:58 | -22.37672 | -42.93553 | 14634 ft | 382 kts | 12° |
| 2026-05-05 09:58 | -22.35066 | -42.92911 | 15150 ft | 385 kts | 12° |
| 2026-05-05 09:59 | -22.32413 | -42.92517 | 15654 ft | 387 kts | 1° |
| 2026-05-05 09:59 | -22.29721 | -42.92669 | 16154 ft | 388 kts | 350° |
| 2026-05-05 09:59 | -22.27043 | -42.93117 | 16683 ft | 391 kts | 349° |
| 2026-05-05 09:59 | -22.24350 | -42.93568 | 17188 ft | 393 kts | 349° |
| 2026-05-05 10:00 | -22.21637 | -42.94019 | 17676 ft | 396 kts | 349° |
| 2026-05-05 10:00 | -22.18883 | -42.94314 | 18128 ft | 401 kts | 358° |
| 2026-05-05 10:00 | -22.16094 | -42.94024 | 18262 ft | 405 kts | 11° |
| 2026-05-05 10:00 | -22.13408 | -42.93064 | 18572 ft | 409 kts | 24° |
| 2026-05-05 10:01 | -22.10936 | -42.91534 | 18985 ft | 412 kts | 32° |
| 2026-05-05 10:01 | -22.08522 | -42.89848 | 19399 ft | 414 kts | 32° |
| 2026-05-05 10:01 | -22.06090 | -42.88161 | 19787 ft | 417 kts | 31° |
| 2026-05-05 10:01 | -22.03631 | -42.86467 | 20158 ft | 421 kts | 31° |
| 2026-05-05 10:02 | -22.01157 | -42.84767 | 20537 ft | 424 kts | 31° |
| 2026-05-05 10:02 | -21.98632 | -42.83033 | 20915 ft | 426 kts | 31° |
| 2026-05-05 10:02 | -21.96161 | -42.81326 | 21306 ft | 429 kts | 31° |
| 2026-05-05 10:02 | -21.93646 | -42.79584 | 21704 ft | 431 kts | 32° |
| 2026-05-05 10:03 | -21.91085 | -42.77806 | 22115 ft | 434 kts | 31° |
| 2026-05-05 10:03 | -21.89401 | -42.76639 | 22370 ft | 435 kts | 31° |
| 2026-05-05 10:03 | -21.86846 | -42.74871 | 22749 ft | 438 kts | 31° |
| 2026-05-05 10:03 | -21.83425 | -42.72508 | 23180 ft | 443 kts | 31° |
| 2026-05-05 10:04 | -21.80819 | -42.70709 | 23543 ft | 446 kts | 31° |
| 2026-05-05 10:04 | -21.78195 | -42.68902 | 23878 ft | 449 kts | 31° |
| 2026-05-05 10:04 | -21.75553 | -42.67087 | 24189 ft | 452 kts | 31° |
| 2026-05-05 10:04 | -21.73759 | -42.65855 | 24374 ft | 454 kts | 31° |
| 2026-05-05 10:05 | -21.71092 | -42.64022 | 24677 ft | 456 kts | 31° |
| 2026-05-05 10:05 | -21.68411 | -42.62178 | 24988 ft | 459 kts | 31° |
| 2026-05-05 10:05 | -21.65713 | -42.60322 | 25296 ft | 461 kts | 30° |
| 2026-05-05 10:05 | -21.63002 | -42.58472 | 25598 ft | 463 kts | 29° |
| 2026-05-05 10:06 | -21.60221 | -42.56703 | 25893 ft | 465 kts | 27° |
| 2026-05-05 10:06 | -21.57376 | -42.55029 | 26173 ft | 467 kts | 25° |
| 2026-05-05 10:06 | -21.54490 | -42.53417 | 26468 ft | 469 kts | 24° |
| 2026-05-05 10:06 | -21.51576 | -42.51820 | 26741 ft | 471 kts | 24° |
| 2026-05-05 10:07 | -21.48647 | -42.50204 | 27018 ft | 474 kts | 25° |
| 2026-05-05 10:07 | -21.45710 | -42.48557 | 27274 ft | 477 kts | 25° |
| 2026-05-05 10:07 | -21.39826 | -42.45175 | 27800 ft | 482 kts | 25° |
| 2026-05-05 10:07 | -21.33896 | -42.41731 | 28339 ft | 487 kts | 25° |
| 2026-05-05 10:08 | -21.27920 | -42.38281 | 28856 ft | 490 kts | 25° |
| 2026-05-05 10:08 | -21.21879 | -42.34817 | 29323 ft | 494 kts | 25° |
| 2026-05-05 10:08 | -21.15791 | -42.31332 | 29779 ft | 498 kts | 25° |
| 2026-05-05 10:08 | -21.09662 | -42.27823 | 30248 ft | 502 kts | 25° |
| 2026-05-05 10:09 | -21.03484 | -42.24284 | 30670 ft | 505 kts | 25° |
| 2026-05-05 10:09 | -20.97322 | -42.20756 | 31352 ft | 501 kts | 25° |
| 2026-05-05 10:09 | -20.91203 | -42.17258 | 32032 ft | 498 kts | 25° |
| 2026-05-05 10:09 | -20.85114 | -42.13778 | 32728 ft | 495 kts | 25° |
| 2026-05-05 10:10 | -20.79047 | -42.10312 | 33355 ft | 493 kts | 24° |
| 2026-05-05 10:10 | -20.73008 | -42.06881 | 33981 ft | 491 kts | 24° |
| 2026-05-05 10:10 | -20.66987 | -42.03466 | 34567 ft | 489 kts | 24° |
| 2026-05-05 10:10 | -20.60993 | -42.00057 | 35022 ft | 488 kts | 24° |
| 2026-05-05 10:11 | -20.55050 | -41.96534 | 35280 ft | 487 kts | 26° |
| 2026-05-05 10:11 | -20.49185 | -41.92967 | 35282 ft | 483 kts | 26° |
| 2026-05-05 10:11 | -20.37488 | -41.85972 | 35285 ft | 483 kts | 25° |
| 2026-05-05 10:12 | -20.25749 | -41.78994 | 35284 ft | 483 kts | 25° |
| 2026-05-05 10:12 | -20.14030 | -41.72035 | 35280 ft | 481 kts | 25° |
| 2026-05-05 10:13 | -20.02326 | -41.65106 | 35269 ft | 481 kts | 25° |
| 2026-05-05 10:13 | -19.90631 | -41.58175 | 35272 ft | 481 kts | 25° |
| 2026-05-05 10:14 | -19.78950 | -41.51281 | 35270 ft | 480 kts | 25° |
| 2026-05-05 10:14 | -19.67296 | -41.44394 | 35253 ft | 479 kts | 25° |
| 2026-05-05 10:15 | -19.55654 | -41.37550 | 35254 ft | 478 kts | 24° |
| 2026-05-05 10:15 | -19.44014 | -41.30698 | 35256 ft | 478 kts | 25° |
| 2026-05-05 10:16 | -19.32364 | -41.23869 | 35236 ft | 479 kts | 24° |
| 2026-05-05 10:16 | -19.20712 | -41.17061 | 35259 ft | 477 kts | 24° |
| 2026-05-05 10:17 | -19.09099 | -41.10270 | 35252 ft | 476 kts | 24° |
| 2026-05-05 10:17 | -18.97513 | -41.03502 | 35248 ft | 476 kts | 24° |
| 2026-05-05 10:18 | -18.85928 | -40.96743 | 35240 ft | 475 kts | 24° |
| 2026-05-05 10:18 | -18.74357 | -40.90006 | 35251 ft | 475 kts | 24° |
| 2026-05-05 10:19 | -18.62714 | -40.83233 | 35241 ft | 474 kts | 24° |
| 2026-05-05 10:19 | -18.51177 | -40.76538 | 35242 ft | 473 kts | 24° |
| 2026-05-05 10:20 | -18.39723 | -40.69914 | 35233 ft | 472 kts | 24° |
| 2026-05-05 10:20 | -18.28150 | -40.63218 | 35242 ft | 471 kts | 24° |
| 2026-05-05 10:21 | -18.16677 | -40.56586 | 35228 ft | 470 kts | 24° |
| 2026-05-05 10:21 | -18.05224 | -40.49971 | 35223 ft | 469 kts | 24° |
| 2026-05-05 10:22 | -17.93860 | -40.43457 | 35217 ft | 468 kts | 24° |
| 2026-05-05 10:22 | -17.82369 | -40.36852 | 35222 ft | 468 kts | 24° |
| 2026-05-05 10:23 | -17.70912 | -40.30374 | 35213 ft | 467 kts | 23° |
| 2026-05-05 10:23 | -17.59380 | -40.24076 | 35224 ft | 468 kts | 23° |
| 2026-05-05 10:24 | -17.47944 | -40.17755 | 35212 ft | 467 kts | 24° |
| 2026-05-05 10:24 | -17.36341 | -40.11401 | 35212 ft | 467 kts | 24° |
| 2026-05-05 10:25 | -17.24821 | -40.05075 | 35220 ft | 467 kts | 24° |
| 2026-05-05 10:25 | -17.13308 | -39.98765 | 35216 ft | 467 kts | 23° |
| 2026-05-05 10:26 | -17.01790 | -39.92462 | 35196 ft | 467 kts | 24° |
| 2026-05-05 10:26 | -16.90269 | -39.86183 | 35205 ft | 467 kts | 24° |
| 2026-05-05 10:27 | -16.78760 | -39.79889 | 35189 ft | 467 kts | 24° |
| 2026-05-05 10:27 | -16.67253 | -39.73619 | 35184 ft | 466 kts | 24° |
| 2026-05-05 10:28 | -16.55747 | -39.67369 | 35173 ft | 467 kts | 24° |
| 2026-05-05 10:28 | -16.44229 | -39.61122 | 35177 ft | 467 kts | 24° |
| 2026-05-05 10:29 | -16.32715 | -39.54852 | 35173 ft | 467 kts | 24° |
| 2026-05-05 10:29 | -16.21197 | -39.48631 | 35174 ft | 466 kts | 23° |
| 2026-05-05 10:30 | -16.09703 | -39.42414 | 35171 ft | 466 kts | 23° |
| 2026-05-05 10:30 | -15.98198 | -39.36202 | 35156 ft | 466 kts | 23° |
| 2026-05-05 10:31 | -15.86705 | -39.29994 | 35157 ft | 466 kts | 23° |
| 2026-05-05 10:31 | -15.75200 | -39.23786 | 35155 ft | 466 kts | 23° |
| 2026-05-05 10:32 | -15.63689 | -39.17603 | 35158 ft | 466 kts | 23° |
| 2026-05-05 10:32 | -15.52173 | -39.11403 | 35149 ft | 466 kts | 23° |
| 2026-05-05 10:33 | -15.40663 | -39.05223 | 35154 ft | 466 kts | 23° |
| 2026-05-05 10:33 | -15.29150 | -38.99058 | 35142 ft | 465 kts | 23° |
| 2026-05-05 10:34 | -15.17643 | -38.92891 | 35131 ft | 465 kts | 23° |
| 2026-05-05 10:34 | -15.06136 | -38.86737 | 35137 ft | 465 kts | 23° |
| 2026-05-05 10:35 | -14.94630 | -38.80596 | 35138 ft | 465 kts | 23° |
| 2026-05-05 10:35 | -14.83130 | -38.74459 | 35139 ft | 465 kts | 23° |
| 2026-05-05 10:36 | -14.71633 | -38.68334 | 35130 ft | 465 kts | 23° |
| 2026-05-05 10:36 | -14.60130 | -38.62218 | 35125 ft | 465 kts | 23° |
| 2026-05-05 10:37 | -14.48643 | -38.56105 | 35121 ft | 464 kts | 23° |
| 2026-05-05 10:37 | -14.37157 | -38.50008 | 35121 ft | 464 kts | 23° |